PORT of KOPER

מדינה: Slovenia מדינה: Slovenia [SI]
קו רוחב / קו אורך: 45.56217° / 13.736355° הראה במפה
זמן מקומי:  [UTC +3]
UN/LOCODE: SIKOP
כלי שייט כרגע בנמל: 16
כלי שייט צפויים: 12

הגעות ועזיבות אחרונות


שמות כלי שייט
הגעה (UTC)
הגעה (LT)
עזיבה (UTC)
עזיבה (LT)
Vessel Type: גוררת,נתב  DRAVO COSTA DORADA 2014-09-02 01:16:00 2014-09-02 04:16:00
Vessel Type: גוררת,נתב  DRAVO COSTA DORADA 2014-09-01 23:47:00 2014-09-02 02:47:00 2014-09-02 01:09:00 2014-09-02 04:09:00
Vessel Type: גוררת,נתב  DRAVO COSTA DORADA 2014-09-01 21:13:00 2014-09-02 00:13:00 2014-09-01 23:39:00 2014-09-02 02:39:00
Vessel Type: גוררת,נתב  DRAVO COSTA DORADA 2014-09-01 19:40:00 2014-09-01 22:40:00 2014-09-01 21:06:00 2014-09-02 00:06:00
Vessel Type: יאכטה ואחרים  G.DALLAPORTA 2014-09-01 19:41:00 2014-09-01 22:41:00 2014-09-01 20:17:00 2014-09-01 23:17:00
Vessel Type: גוררת,נתב  DRAVO COSTA DORADA 2014-09-01 16:28:00 2014-09-01 19:28:00 2014-09-01 19:34:00 2014-09-01 22:34:00
Vessel Type: גוררת,נתב  DRAVO COSTA DORADA 2014-09-01 15:10:00 2014-09-01 18:10:00 2014-09-01 16:22:00 2014-09-01 19:22:00
Vessel Type: גוררת,נתב  DRAVO COSTA DORADA 2014-09-01 12:32:00 2014-09-01 15:32:00 2014-09-01 15:01:00 2014-09-01 18:01:00
Vessel Type: גוררת,נתב  PEGASUS SECONDO 2014-09-01 11:13:00 2014-09-01 14:13:00 2014-09-01 13:01:00 2014-09-01 16:01:00
Vessel Type: גוררת,נתב  SIRIUS 2014-09-01 12:38:00 2014-09-01 15:38:00

כלי שייט צפויים


שמות כלי שייט
Scheduled Arrival (UTC)
לוח זמני הגעה (שעון מקומי)
הגעה משוערת (UTC)
הגעה משוערת(זמן מקומי)
Vessel Type: אוניית נוסעים  CELEBRITY SILHOUETTE 2014-09-02 05:00:00 2014-09-02 08:00:00 2014-09-02 04:00:00 2014-09-02 07:00:00
Vessel Type: מיכליות  BYZANTION 2014-09-02 06:00:00 2014-09-02 09:00:00 2014-09-02 04:38:00 2014-09-02 07:38:00
Vessel Type: אוניית מטען  AENNE RICKMERS 2014-09-02 11:00:00 2014-09-02 14:00:00
Vessel Type: מיכליות  MAERSK ETIENNE 2014-09-02 20:30:00 2014-09-02 23:30:00 2014-09-02 21:12:00 2014-09-03 00:12:00
Vessel Type: אוניית מטען  DESPINA 2014-09-03 02:00:00 2014-09-03 05:00:00
Vessel Type: אוניית מטען  CARTEN MARIA 2014-09-03 06:00:00 2014-09-03 09:00:00 2014-09-15 10:16:00 2014-09-15 13:16:00
Vessel Type: אוניית מטען  LE MANS EXPRESS 2014-09-03 21:00:00 2014-09-04 00:00:00 2014-09-03 21:37:00 2014-09-04 00:37:00
Vessel Type: אוניית מטען  UBC MONTREAL 2014-09-03 23:00:00 2014-09-04 02:00:00
Vessel Type: אוניית מטען  HARMONY 2014-09-04 12:00:00 2014-09-04 15:00:00 2014-09-04 11:55:00 2014-09-04 14:55:00
Vessel Type: מיכליות  INYALA 2014-09-04 12:00:00 2014-09-04 15:00:00 2014-09-04 10:21:00 2014-09-04 13:21:00

Wind Forecast


    
זמן (UTC)
מהירות
Direction
Temperature
2014-09-02 00:00:00 18 knots 44° 20°C
2014-09-02 03:00:00 20 knots 45° 21°C
2014-09-02 06:00:00 20 knots 45° 20°C
2014-09-02 09:00:00 19 knots 42° 21°C
2014-09-02 12:00:00 22 knots 43° 22°C
2014-09-02 15:00:00 22 knots 44° 22°C
2014-09-02 18:00:00 19 knots 46° 21°C
2014-09-02 21:00:00 17 knots 55° 21°C
2014-09-03 00:00:00 16 knots 52° 21°C
2014-09-03 03:00:00 17 knots 54° 21°C
2014-09-03 06:00:00 17 knots 55° 21°C
2014-09-03 09:00:00 15 knots 47° 25°C
2014-09-03 12:00:00 14 knots 51° 27°C
2014-09-03 15:00:00 14 knots 53° 27°C
2014-09-03 18:00:00 15 knots 57° 25°C
2014-09-03 21:00:00 16 knots 54° 24°C
2014-09-04 00:00:00 15 knots 60° 22°C